KCUL

Details ICAO KCUL
Name CARMI MUNI
Region United States
Timezone America/Chicago (UTC-6.0)
Plans Departing 1
Arriving 0
Stats Elevation 388 ft / 118 m (AMSL)
Location 38.089487° -88.123059°
Runways 1
Magnetic Variation 3.027° W
Sunrise 2017-12-15 13:03:08 UTC / 2017-12-15 07:03:08 Local
Sunset 2017-12-15 22:35:10 UTC / 2017-12-15 16:35:10 Local
Advertisement - Login to hide

Runways

ID Width Length Bearing (true) Bearing (mag) Surface Threshold Offset Overrun Length
18 75 ft / 23 m 4,003 ft / 1,220 m 180.22° 183.25° Asphalt 0 ft / 0 m 0 ft / 0 m
36 75 ft / 23 m 4,003 ft / 1,220 m 0.22° 3.25° Asphalt 0 ft / 0 m 0 ft / 0 m

Map

Weather


0- 5 10 15 20 25 30 35+ Temperature / ° C

Clouds and Precipitation
Forecast for 2017-12-15 12:00 UTC. Updated an hour ago

Ground ~20,000 ft ~40,000 ft Winds

METAR

KCUL 151035Z AUTO 28005KT 10SM OVC033 M01/M06 A3010 RMK AO2 T10111058

TAF

Not found

Frequencies

Unicom 122.80 MHz CTAF/UNICOM
Approach 127.35 MHz EVANSVILLE APP/DEP
Warning: Do not use this data for real-world aviation or navigation. No guarantee of current accuracy is given.